Terminal Aerodrome Forecast
Issued by NWS

Home | Current Version | Previous Version | Graphics & Text | Print | Product List | Glossary On
Versions: 1 2 3 4 5 6 7 8 9 10 11 12 13 14 15 16 17
000
FTUS43 KMPX 262001 AAA
TAFRNH
TAF AMD
KRNH 262001Z 2620/2718 34012G20KT P6SM BKN035
     FM262200 33010KT P6SM SCT040
     FM270000 35005KT P6SM SKC
     FM270500 35004KT P6SM SKC=

USA.gov is the U.S. government's official web portal to all federal, state and local government web resources and services.